Time;durP1;ratioP1;P1;durP2;ratioP2;P2;SDS_P1;SDS_P2;PMS_P1;PMS_P2;Temp;Humidity;BMP_temperature;BMP_pressure;BME280_temperature;BME280_humidity;BME280_pressure;Samples;Min_cycle;Max_cycle;Signal;HPM_P1;HPM_P2
2023/04/24 00:01:19;;;;;;;1.67;0.60;;;;;;;;;;5012620;28;20479;-79
2023/04/24 00:03:48;;;;;;;0.88;0.70;;;;;;;;;;5035859;28;20046;-82
2023/04/24 00:06:18;;;;;;;0.70;0.50;;;;;;;;;;5025439;28;20095;-81
2023/04/24 00:08:44;;;;;;;1.05;0.47;;;;;;;;;;5020001;28;20429;-82
2023/04/24 00:11:11;;;;;;;1.58;0.57;;;;;;;;;;5022221;28;20054;-81
2023/04/24 00:13:38;;;;;;;1.90;0.50;;;;;;;;;;5031903;28;20056;-81
2023/04/24 00:16:05;;;;;;;1.30;0.77;;;;;;;;;;5032624;28;20049;-81
2023/04/24 00:18:32;;;;;;;1.48;0.65;;;;;;;;;;5014621;28;20041;-81
2023/04/24 00:20:59;;;;;;;1.23;0.60;;;;;;;;;;5013765;28;20045;-80
2023/04/24 00:23:25;;;;;;;2.22;0.75;;;;;;;;;;5030070;28;20617;-80
2023/04/24 00:25:52;;;;;;;0.90;0.70;;;;;;;;;;5032065;28;20053;-81
2023/04/24 00:28:19;;;;;;;1.58;0.82;;;;;;;;;;5042954;28;20032;-82
2023/04/24 00:30:45;;;;;;;2.22;0.77;;;;;;;;;;5036116;28;20105;-81
2023/04/24 00:33:12;;;;;;;2.03;0.80;;;;;;;;;;5052425;28;20033;-82
2023/04/24 00:35:38;;;;;;;2.03;0.98;;;;;;;;;;5044754;28;20041;-81
2023/04/24 00:38:05;;;;;;;1.38;0.70;;;;;;;;;;5033261;28;20057;-81
2023/04/24 00:40:33;;;;;;;1.42;0.90;;;;;;;;;;5034361;28;20038;-82
2023/04/24 00:43:00;;;;;;;2.95;0.88;;;;;;;;;;5035330;28;20128;-80
2023/04/24 00:45:27;;;;;;;2.05;0.90;;;;;;;;;;5039899;28;20057;-81
2023/04/24 00:47:53;;;;;;;1.30;0.80;;;;;;;;;;5045493;28;20497;-82
2023/04/24 00:50:21;;;;;;;2.75;0.82;;;;;;;;;;5073381;28;20030;-81
2023/04/24 00:52:50;;;;;;;1.58;0.73;;;;;;;;;;5044727;28;20045;-81
2023/04/24 00:55:37;;;;;;;2.25;1.08;;;;;;;;;;5050616;28;20064;-81
2023/04/24 00:58:04;;;;;;;1.58;0.75;;;;;;;;;;5056398;28;20048;-82
2023/04/24 01:00:31;;;;;;;1.67;0.80;;;;;;;;;;5052598;28;20077;-80
2023/04/24 01:02:59;;;;;;;2.45;0.80;;;;;;;;;;5036717;28;20075;-82
2023/04/24 01:05:27;;;;;;;1.63;1.00;;;;;;;;;;5041512;28;20050;-80
2023/04/24 01:07:53;;;;;;;1.92;0.90;;;;;;;;;;5042199;28;20060;-81
2023/04/24 01:10:20;;;;;;;1.67;0.90;;;;;;;;;;5040095;28;20037;-81
2023/04/24 01:12:48;;;;;;;2.03;0.90;;;;;;;;;;5039954;28;20048;-82
2023/04/24 01:15:15;;;;;;;1.77;0.90;;;;;;;;;;5046510;28;20075;-82
2023/04/24 01:17:41;;;;;;;1.13;0.90;;;;;;;;;;5044953;28;20053;-82
2023/04/24 01:20:08;;;;;;;3.00;1.08;;;;;;;;;;5042584;28;20069;-81
2023/04/24 01:22:35;;;;;;;2.40;1.02;;;;;;;;;;5042633;28;20571;-82
2023/04/24 01:25:02;;;;;;;1.02;0.90;;;;;;;;;;5040691;28;20056;-83
2023/04/24 01:27:29;;;;;;;2.65;0.82;;;;;;;;;;5041865;28;20045;-82
2023/04/24 01:29:56;;;;;;;1.25;0.70;;;;;;;;;;5039450;28;20049;-82
2023/04/24 01:32:25;;;;;;;3.55;1.20;;;;;;;;;;5042443;28;20116;-80
2023/04/24 01:34:52;;;;;;;1.63;1.10;;;;;;;;;;5042216;28;20046;-80
2023/04/24 01:37:18;;;;;;;1.42;0.85;;;;;;;;;;5045414;28;20052;-81
2023/04/24 01:39:45;;;;;;;1.45;0.90;;;;;;;;;;5045239;28;20052;-80
2023/04/24 01:42:12;;;;;;;2.88;1.08;;;;;;;;;;5042362;28;20156;-80
2023/04/24 01:44:39;;;;;;;1.63;1.10;;;;;;;;;;5046912;28;20056;-81
2023/04/24 01:47:06;;;;;;;3.53;1.25;;;;;;;;;;5048413;28;20041;-81
2023/04/24 01:49:33;;;;;;;1.45;1.00;;;;;;;;;;5052013;28;20540;-81
2023/04/24 01:52:00;;;;;;;1.15;0.95;;;;;;;;;;5046770;28;20095;-81
2023/04/24 01:54:29;;;;;;;2.63;1.08;;;;;;;;;;5027497;28;20065;-80
2023/04/24 01:56:56;;;;;;;3.58;1.08;;;;;;;;;;5060771;28;20059;-82
2023/04/24 01:59:23;;;;;;;1.75;1.10;;;;;;;;;;5061952;28;20057;-79
2023/04/24 02:01:50;;;;;;;2.30;1.15;;;;;;;;;;5033812;28;20044;-82
2023/04/24 02:04:18;;;;;;;2.50;1.00;;;;;;;;;;5059060;28;20044;-82
2023/04/24 02:06:46;;;;;;;2.10;1.00;;;;;;;;;;5062703;28;20062;-80
2023/04/24 02:09:13;;;;;;;1.90;1.10;;;;;;;;;;5065123;28;20066;-80
2023/04/24 02:11:39;;;;;;;4.32;1.02;;;;;;;;;;5067318;28;20098;-77
2023/04/24 02:14:06;;;;;;;3.53;1.08;;;;;;;;;;5036508;28;20089;-80
2023/04/24 02:16:33;;;;;;;2.03;1.05;;;;;;;;;;5069298;28;20041;-82
2023/04/24 02:19:00;;;;;;;3.40;1.13;;;;;;;;;;5067104;28;20037;-78
2023/04/24 02:21:27;;;;;;;2.05;1.00;;;;;;;;;;5066701;28;20045;-81
2023/04/24 02:23:54;;;;;;;2.60;1.17;;;;;;;;;;5066251;28;20052;-81
2023/04/24 02:26:20;;;;;;;6.78;1.40;;;;;;;;;;5062985;28;20096;-81
2023/04/24 02:28:50;;;;;;;4.30;1.20;;;;;;;;;;5054244;28;20045;-82
2023/04/24 02:31:22;;;;;;;2.90;1.20;;;;;;;;;;5044512;28;20051;-79
2023/04/24 02:33:49;;;;;;;2.30;1.23;;;;;;;;;;5042730;28;20048;-83
2023/04/24 02:36:16;;;;;;;2.75;1.05;;;;;;;;;;5040960;28;20469;-82
2023/04/24 02:38:43;;;;;;;3.35;1.23;;;;;;;;;;5042312;28;20061;-81
2023/04/24 02:41:11;;;;;;;2.75;1.23;;;;;;;;;;5046330;28;20048;-81
2023/04/24 02:43:38;;;;;;;3.70;1.20;;;;;;;;;;5036779;28;20069;-82
2023/04/24 02:46:04;;;;;;;3.88;1.27;;;;;;;;;;5033300;28;20122;-81
2023/04/24 02:48:31;;;;;;;4.00;1.58;;;;;;;;;;5041439;28;20052;-81
2023/04/24 02:50:58;;;;;;;2.58;1.20;;;;;;;;;;5052215;28;24550;-81
2023/04/24 02:53:25;;;;;;;5.18;1.38;;;;;;;;;;5055215;28;20132;-81
2023/04/24 02:55:51;;;;;;;2.25;1.10;;;;;;;;;;5054399;28;20048;-80
2023/04/24 02:58:19;;;;;;;3.13;1.33;;;;;;;;;;5046966;28;20080;-78
2023/04/24 03:00:47;;;;;;;2.30;1.20;;;;;;;;;;5052836;28;20057;-80
2023/04/24 03:03:14;;;;;;;3.42;1.40;;;;;;;;;;5054468;28;20055;-81
2023/04/24 03:05:41;;;;;;;4.28;1.45;;;;;;;;;;5054439;28;20045;-82
2023/04/24 03:08:08;;;;;;;3.30;1.35;;;;;;;;;;5042426;28;20129;-81
2023/04/24 03:10:34;;;;;;;6.97;1.30;;;;;;;;;;5036153;28;20041;-82
2023/04/24 03:13:01;;;;;;;2.17;1.20;;;;;;;;;;5033800;28;20073;-82
2023/04/24 03:15:28;;;;;;;2.22;1.10;;;;;;;;;;5033924;28;20124;-80
2023/04/24 03:17:55;;;;;;;4.60;1.58;;;;;;;;;;5051028;28;20056;-81
2023/04/24 03:20:22;;;;;;;2.53;1.30;;;;;;;;;;5034253;28;20150;-80
2023/04/24 03:22:49;;;;;;;5.43;2.05;;;;;;;;;;5049795;28;20045;-80
2023/04/24 03:25:16;;;;;;;4.68;1.33;;;;;;;;;;5035526;28;20045;-81
2023/04/24 03:27:43;;;;;;;2.88;1.30;;;;;;;;;;5033006;28;20068;-80
2023/04/24 03:30:19;;;;;;;2.47;1.20;;;;;;;;;;5032474;28;20064;-79
2023/04/24 03:32:51;;;;;;;3.92;1.23;;;;;;;;;;5022262;28;20098;-80
2023/04/24 03:35:22;;;;;;;2.28;1.40;;;;;;;;;;5024184;28;20041;-82
2023/04/24 03:37:50;;;;;;;3.50;1.75;;;;;;;;;;5035014;28;20378;-81
2023/04/24 03:40:35;;;;;;;2.53;1.40;;;;;;;;;;5019336;28;20079;-84
2023/04/24 03:43:06;;;;;;;2.50;1.38;;;;;;;;;;5015126;28;20045;-82
2023/04/24 03:45:33;;;;;;;3.63;1.50;;;;;;;;;;5018538;28;20103;-80
2023/04/24 03:48:00;;;;;;;6.68;1.80;;;;;;;;;;5017534;28;20045;-79
2023/04/24 03:50:30;;;;;;;1.98;1.25;;;;;;;;;;5018207;28;20111;-80
2023/04/24 03:52:58;;;;;;;4.05;1.67;;;;;;;;;;5017530;28;20145;-81
2023/04/24 03:55:34;;;;;;;2.75;1.33;;;;;;;;;;5012373;28;20049;-80
2023/04/24 03:58:00;;;;;;;3.30;1.48;;;;;;;;;;5036479;28;20091;-82
2023/04/24 04:00:28;;;;;;;2.95;1.40;;;;;;;;;;5036413;28;20064;-80
2023/04/24 04:03:14;;;;;;;4.32;1.50;;;;;;;;;;5032630;28;20152;-80
2023/04/24 04:05:42;;;;;;;4.63;1.80;;;;;;;;;;5031555;28;20072;-80
2023/04/24 04:08:09;;;;;;;4.05;1.65;;;;;;;;;;5025524;28;20061;-83
2023/04/24 04:10:35;;;;;;;6.30;1.40;;;;;;;;;;5016568;28;20421;-83
2023/04/24 04:13:03;;;;;;;6.88;1.60;;;;;;;;;;5018929;28;20057;-81
2023/04/24 04:15:30;;;;;;;1.83;1.33;;;;;;;;;;5019678;28;20042;-83
2023/04/24 04:17:57;;;;;;;4.95;1.80;;;;;;;;;;5018646;28;20076;-83
2023/04/24 04:20:24;;;;;;;3.03;1.58;;;;;;;;;;5018030;28;20038;-81
2023/04/24 04:22:51;;;;;;;3.65;1.60;;;;;;;;;;5012639;28;20045;-81
2023/04/24 04:25:26;;;;;;;7.65;1.90;;;;;;;;;;5024965;28;20048;-81
2023/04/24 04:27:53;;;;;;;5.65;1.45;;;;;;;;;;5046381;28;20076;-81
2023/04/24 04:30:23;;;;;;;2.65;1.50;;;;;;;;;;5027670;28;20049;-81
2023/04/24 04:32:57;;;;;;;2.78;1.48;;;;;;;;;;5047326;28;20049;-82
2023/04/24 04:35:24;;;;;;;2.47;1.30;;;;;;;;;;5049315;28;20045;-83
2023/04/24 04:37:52;;;;;;;4.22;1.67;;;;;;;;;;5030588;28;20073;-82
2023/04/24 04:40:29;;;;;;;5.80;1.70;;;;;;;;;;5029010;28;20045;-81
2023/04/24 04:43:01;;;;;;;3.90;1.90;;;;;;;;;;5029198;28;20042;-81
2023/04/24 04:45:32;;;;;;;3.72;1.60;;;;;;;;;;5029257;28;20144;-82
2023/04/24 04:48:18;;;;;;;4.90;1.75;;;;;;;;;;5025664;28;20578;-83
2023/04/24 04:50:45;;;;;;;3.33;1.40;;;;;;;;;;5024833;28;20194;-82
2023/04/24 04:53:13;;;;;;;2.80;1.70;;;;;;;;;;5045147;28;20057;-82
2023/04/24 04:55:41;;;;;;;3.30;1.30;;;;;;;;;;5029212;28;20052;-82
2023/04/24 04:58:13;;;;;;;4.65;1.73;;;;;;;;;;5027503;28;20046;-80
2023/04/24 05:00:41;;;;;;;2.72;1.50;;;;;;;;;;5034727;28;20409;-82
2023/04/24 05:03:16;;;;;;;2.35;1.30;;;;;;;;;;5033892;28;20212;-82
2023/04/24 05:05:53;;;;;;;4.03;1.35;;;;;;;;;;5027003;28;20049;-82
2023/04/24 05:08:20;;;;;;;2.33;1.13;;;;;;;;;;5029056;28;20045;-82
2023/04/24 05:10:53;;;;;;;2.33;1.30;;;;;;;;;;5059400;28;20362;-82
2023/04/24 05:13:20;;;;;;;3.28;1.50;;;;;;;;;;5030870;28;20065;-81
2023/04/24 05:16:07;;;;;;;3.30;1.40;;;;;;;;;;5016446;28;20121;-81
2023/04/24 05:18:34;;;;;;;3.40;1.50;;;;;;;;;;5025824;28;20041;-82
2023/04/24 05:21:01;;;;;;;2.28;1.23;;;;;;;;;;5028393;28;20049;-79
2023/04/24 05:23:28;;;;;;;2.42;1.30;;;;;;;;;;5029021;28;20057;-81
2023/04/24 05:25:56;;;;;;;4.40;1.27;;;;;;;;;;5028989;28;20049;-81
2023/04/24 05:28:22;;;;;;;5.65;1.20;;;;;;;;;;5030254;28;20520;-82
2023/04/24 05:31:02;;;;;;;4.53;1.35;;;;;;;;;;5018434;28;20050;-81
2023/04/24 05:33:28;;;;;;;3.30;1.10;;;;;;;;;;5023703;28;20174;-81
2023/04/24 05:35:55;;;;;;;2.00;1.10;;;;;;;;;;5020713;28;20095;-80
2023/04/24 05:38:22;;;;;;;1.73;0.93;;;;;;;;;;5027862;28;20057;-81
2023/04/24 05:40:48;;;;;;;2.22;1.20;;;;;;;;;;5027810;28;20053;-81
2023/04/24 05:43:15;;;;;;;2.83;1.20;;;;;;;;;;5051365;28;20056;-81
2023/04/24 05:45:41;;;;;;;3.85;1.20;;;;;;;;;;5030388;28;20046;-81
2023/04/24 05:48:08;;;;;;;1.98;1.13;;;;;;;;;;5028029;28;20075;-81
2023/04/24 05:50:35;;;;;;;3.10;1.10;;;;;;;;;;5028315;28;20111;-81
2023/04/24 05:53:03;;;;;;;2.97;1.30;;;;;;;;;;5031024;28;20057;-81
2023/04/24 05:55:33;;;;;;;3.03;1.20;;;;;;;;;;5049053;28;20049;-81
2023/04/24 05:58:00;;;;;;;3.90;1.30;;;;;;;;;;5036251;28;20041;-80
2023/04/24 06:00:28;;;;;;;1.95;1.10;;;;;;;;;;5034378;28;20041;-81
2023/04/24 06:03:03;;;;;;;2.80;1.15;;;;;;;;;;5031758;28;20152;-80
2023/04/24 06:05:31;;;;;;;4.50;0.95;;;;;;;;;;5034910;28;20068;-79
2023/04/24 06:07:58;;;;;;;2.92;1.10;;;;;;;;;;5040480;28;20045;-80
2023/04/24 06:10:28;;;;;;;2.42;0.95;;;;;;;;;;5034663;28;20065;-80
2023/04/24 06:13:00;;;;;;;4.97;1.13;;;;;;;;;;5038822;28;20049;-82
2023/04/24 06:15:30;;;;;;;2.83;0.90;;;;;;;;;;5039745;28;20048;-81
2023/04/24 06:18:04;;;;;;;4.90;0.90;;;;;;;;;;5038626;28;20049;-80
2023/04/24 06:20:35;;;;;;;5.65;1.25;;;;;;;;;;5020618;28;20128;-81
2023/04/24 06:23:01;;;;;;;4.38;1.20;;;;;;;;;;5036310;28;20637;-80
2023/04/24 06:25:28;;;;;;;2.30;0.80;;;;;;;;;;5036182;28;20136;-80
2023/04/24 06:27:55;;;;;;;3.25;1.00;;;;;;;;;;5036683;28;20053;-80
2023/04/24 06:30:23;;;;;;;2.45;0.98;;;;;;;;;;5035254;28;20105;-80
2023/04/24 06:32:50;;;;;;;2.35;0.95;;;;;;;;;;5036811;28;20129;-80
2023/04/24 06:35:17;;;;;;;3.05;0.95;;;;;;;;;;5038016;28;20454;-82
2023/04/24 06:37:44;;;;;;;1.98;0.90;;;;;;;;;;5038296;28;20096;-80
2023/04/24 06:40:11;;;;;;;3.15;1.30;;;;;;;;;;5020691;28;20068;-80
2023/04/24 06:42:37;;;;;;;3.72;1.20;;;;;;;;;;5044366;28;20428;-81
2023/04/24 06:45:07;;;;;;;2.80;0.90;;;;;;;;;;5037078;28;20120;-81
2023/04/24 06:47:33;;;;;;;3.15;1.02;;;;;;;;;;5039887;28;20137;-80
2023/04/24 06:50:00;;;;;;;3.38;1.10;;;;;;;;;;5035796;28;20084;-80
2023/04/24 06:52:27;;;;;;;3.42;0.98;;;;;;;;;;5034312;28;20229;-81
2023/04/24 06:54:59;;;;;;;1.02;0.93;;;;;;;;;;5035335;28;20144;-81
2023/04/24 06:57:26;;;;;;;2.35;1.10;;;;;;;;;;5039225;28;20053;-81
2023/04/24 06:59:54;;;;;;;6.45;1.20;;;;;;;;;;5056315;28;20481;-81
2023/04/24 07:02:21;;;;;;;2.95;1.13;;;;;;;;;;5054876;28;20038;-81
2023/04/24 07:04:49;;;;;;;3.05;1.25;;;;;;;;;;5035247;28;20037;-81
2023/04/24 07:07:18;;;;;;;2.90;1.10;;;;;;;;;;5038179;28;20037;-82
2023/04/24 07:09:45;;;;;;;3.90;1.15;;;;;;;;;;5036613;28;20054;-81
2023/04/24 07:12:13;;;;;;;2.53;1.15;;;;;;;;;;5036950;28;20422;-81
2023/04/24 07:14:39;;;;;;;8.38;1.70;;;;;;;;;;5035535;28;20049;-81
2023/04/24 07:17:06;;;;;;;5.53;1.58;;;;;;;;;;5018584;28;20497;-81
2023/04/24 07:19:37;;;;;;;3.08;0.90;;;;;;;;;;5034798;28;20064;-81
2023/04/24 07:22:07;;;;;;;3.25;1.10;;;;;;;;;;5033133;28;20107;-81
2023/04/24 07:25:08;;;;;;;;;;;;;;;;;;;;;
2023/04/24 07:27:36;;;;;;;3.55;1.20;;;;;;;;;;5029322;28;20107;-80
2023/04/24 07:30:13;;;;;;;2.88;1.13;;;;;;;;;;4979184;28;20088;-79
2023/04/24 07:32:43;;;;;;;2.95;1.00;;;;;;;;;;5012696;28;20140;-80
2023/04/24 07:35:14;;;;;;;3.13;1.00;;;;;;;;;;4991133;28;20041;-80
2023/04/24 07:37:45;;;;;;;2.90;1.33;;;;;;;;;;5008553;28;20056;-80
2023/04/24 07:40:14;;;;;;;3.28;0.80;;;;;;;;;;5049472;28;20471;-80
2023/04/24 07:42:50;;;;;;;1.05;0.90;;;;;;;;;;5030056;28;20102;-81
2023/04/24 07:45:36;;;;;;;3.53;1.10;;;;;;;;;;5014974;28;20057;-80
2023/04/24 07:48:08;;;;;;;1.75;0.80;;;;;;;;;;5029191;28;20125;-79
2023/04/24 07:51:28;;;;;;;5.53;1.33;;;;;;;;;;5005040;28;20038;-81
2023/04/24 07:53:34;;;;;;;3.22;0.93;;;;;;;;;;4991566;28;20041;-80
2023/04/24 07:56:08;;;;;;;2.40;1.00;;;;;;;;;;5053839;28;20105;-81
2023/04/24 07:59:12;;;;;;;4.03;1.23;;;;;;;;;;5039256;28;20319;-82
2023/04/24 08:01:45;;;;;;;2.90;0.70;;;;;;;;;;5003903;28;20049;-80
2023/04/24 08:05:07;;;;;;;5.68;1.27;;;;;;;;;;4979977;28;20714;-81
2023/04/24 08:07:42;;;;;;;5.93;0.90;;;;;;;;;;5031589;28;20044;-81
2023/04/24 08:10:24;;;;;;;2.50;0.85;;;;;;;;;;5051937;28;20051;-82
2023/04/24 08:13:06;;;;;;;2.70;1.08;;;;;;;;;;5030230;28;20123;-81
2023/04/24 08:15:44;;;;;;;1.42;0.85;;;;;;;;;;5062639;28;20075;-80
2023/04/24 08:22:11;;;;;;;3.85;1.20;;;;;;;;;;5022375;28;20184;-81
2023/04/24 08:24:50;;;;;;;1.40;0.80;;;;;;;;;;5053773;28;20048;-81
2023/04/24 08:27:44;;;;;;;3.92;1.08;;;;;;;;;;5068099;28;20118;-81
2023/04/24 08:30:13;;;;;;;2.53;0.98;;;;;;;;;;5039728;28;20045;-81
2023/04/24 08:32:42;;;;;;;3.05;0.90;;;;;;;;;;5029398;28;20050;-81
2023/04/24 08:35:14;;;;;;;3.17;0.73;;;;;;;;;;4984850;28;20037;-81
2023/04/24 08:38:51;;;;;;;10.43;0.90;;;;;;;;;;5012518;28;20051;-81
2023/04/24 08:44:09;;;;;;;2.17;0.95;;;;;;;;;;5018665;28;20045;-81
2023/04/24 08:46:36;;;;;;;4.05;0.80;;;;;;;;;;5038010;28;20046;-81
2023/04/24 08:49:03;;;;;;;3.45;0.98;;;;;;;;;;5038407;28;20038;-80
2023/04/24 08:51:31;;;;;;;4.78;0.70;;;;;;;;;;5037199;28;20046;-80
2023/04/24 08:53:57;;;;;;;3.13;0.90;;;;;;;;;;5037723;28;20556;-80
2023/04/24 08:56:24;;;;;;;2.22;0.95;;;;;;;;;;5059582;28;20049;-78
2023/04/24 08:58:51;;;;;;;1.25;0.73;;;;;;;;;;5057178;28;20484;-79
2023/04/24 09:01:20;;;;;;;1.17;0.55;;;;;;;;;;5038418;28;20048;-81
2023/04/24 09:04:24;;;;;;;3.25;0.90;;;;;;;;;;4997162;28;20045;-80
2023/04/24 09:07:17;;;;;;;2.72;0.90;;;;;;;;;;4984088;28;20061;-80
2023/04/24 09:14:07;;;;;;;2.38;0.60;;;;;;;;;;5019132;28;20040;-81
2023/04/24 09:21:28;;;;;;;1.73;0.80;;;;;;;;;;4959409;28;20196;-81
2023/04/24 09:24:25;;;;;;;2.15;0.95;;;;;;;;;;4950122;28;20113;-82
2023/04/24 09:26:57;;;;;;;4.35;0.93;;;;;;;;;;4982527;28;20045;-79
2023/04/24 09:29:24;;;;;;;2.90;1.02;;;;;;;;;;4951869;28;20051;-81
2023/04/24 09:31:50;;;;;;;5.30;0.82;;;;;;;;;;4967674;28;20043;-82
2023/04/24 09:34:24;;;;;;;1.85;0.80;;;;;;;;;;4966826;28;20337;-79
2023/04/24 09:36:50;;;;;;;3.10;0.65;;;;;;;;;;4954977;28;20483;-81
2023/04/24 09:39:20;;;;;;;1.65;0.65;;;;;;;;;;4952737;28;20065;-81
2023/04/24 09:41:47;;;;;;;1.80;0.70;;;;;;;;;;4965648;28;20385;-80
2023/04/24 09:44:15;;;;;;;2.33;0.60;;;;;;;;;;4965997;28;20134;-80
2023/04/24 09:46:42;;;;;;;2.25;0.65;;;;;;;;;;4968771;28;20046;-79
2023/04/24 09:49:11;;;;;;;2.40;0.65;;;;;;;;;;4992295;28;20110;-83
2023/04/24 09:51:37;;;;;;;3.10;0.60;;;;;;;;;;5006701;28;20258;-81
2023/04/24 09:54:10;;;;;;;2.40;0.50;;;;;;;;;;5006672;28;20129;-79
2023/04/24 09:56:41;;;;;;;2.13;0.32;;;;;;;;;;4982980;28;20044;-83
2023/04/24 09:59:08;;;;;;;1.00;0.50;;;;;;;;;;4984793;28;20053;-80
2023/04/24 10:01:35;;;;;;;1.65;0.60;;;;;;;;;;4954884;28;20085;-83
2023/04/24 10:04:01;;;;;;;1.75;0.57;;;;;;;;;;4955119;28;20051;-81
2023/04/24 10:06:32;;;;;;;2.38;0.63;;;;;;;;;;4970515;28;20300;-82
2023/04/24 10:08:59;;;;;;;1.38;0.40;;;;;;;;;;4966878;28;20082;-79
2023/04/24 10:11:30;;;;;;;1.05;0.40;;;;;;;;;;4964879;28;20130;-82
2023/04/24 10:13:57;;;;;;;2.40;0.55;;;;;;;;;;4963318;28;20118;-78
2023/04/24 10:16:24;;;;;;;1.15;0.70;;;;;;;;;;5003853;28;20042;-83
2023/04/24 10:18:51;;;;;;;3.20;0.60;;;;;;;;;;5002649;28;20051;-82
2023/04/24 10:21:17;;;;;;;1.52;0.60;;;;;;;;;;4969625;28;20166;-80
2023/04/24 10:23:46;;;;;;;1.48;0.50;;;;;;;;;;4972135;28;20034;-82
2023/04/24 10:26:17;;;;;;;3.42;0.60;;;;;;;;;;5006058;28;20035;-81
2023/04/24 10:28:45;;;;;;;2.33;0.57;;;;;;;;;;5007016;28;20061;-83
2023/04/24 10:31:14;;;;;;;1.35;0.70;;;;;;;;;;4976130;28;20540;-81
2023/04/24 10:33:42;;;;;;;4.28;0.93;;;;;;;;;;5002379;28;20039;-83
2023/04/24 10:36:10;;;;;;;2.40;0.98;;;;;;;;;;5008682;28;20502;-84
2023/04/24 10:38:37;;;;;;;1.25;0.47;;;;;;;;;;5008983;28;20458;-81
2023/04/24 10:41:09;;;;;;;1.65;0.70;;;;;;;;;;5017551;28;20110;-81
2023/04/24 10:43:35;;;;;;;1.70;0.60;;;;;;;;;;5007892;28;20082;-81
2023/04/24 10:46:03;;;;;;;1.95;0.60;;;;;;;;;;5011825;28;20053;-79
2023/04/24 10:48:30;;;;;;;3.90;0.65;;;;;;;;;;5025214;28;20046;-80
2023/04/24 10:50:56;;;;;;;1.20;0.77;;;;;;;;;;5018382;28;20047;-80
2023/04/24 10:53:26;;;;;;;2.55;0.70;;;;;;;;;;4986061;28;20058;-82
2023/04/24 10:56:02;;;;;;;5.28;0.90;;;;;;;;;;5002496;28;20043;-81
2023/04/24 10:58:38;;;;;;;1.98;0.80;;;;;;;;;;4972240;28;20047;-81
2023/04/24 11:01:05;;;;;;;0.57;0.50;;;;;;;;;;4988138;28;20495;-81
2023/04/24 11:03:32;;;;;;;2.08;0.70;;;;;;;;;;4972357;28;20517;-81
2023/04/24 11:06:04;;;;;;;1.17;0.60;;;;;;;;;;5004200;28;20062;-81
2023/04/24 11:08:34;;;;;;;1.00;0.52;;;;;;;;;;4987761;28;20055;-80
2023/04/24 11:11:00;;;;;;;1.20;0.52;;;;;;;;;;5003941;28;20297;-81
2023/04/24 11:13:28;;;;;;;3.38;0.60;;;;;;;;;;4973990;28;20039;-81
2023/04/24 11:16:14;;;;;;;1.85;0.70;;;;;;;;;;4975280;28;20057;-81
2023/04/24 11:19:07;;;;;;;3.20;0.68;;;;;;;;;;4965947;28;20066;-80
2023/04/24 11:22:00;;;;;;;1.48;0.82;;;;;;;;;;4952012;28;20047;-83
2023/04/24 11:24:37;;;;;;;3.78;0.70;;;;;;;;;;4967130;28;20141;-80
2023/04/24 11:27:13;;;;;;;2.95;0.60;;;;;;;;;;4960326;28;20054;-80
2023/04/24 11:29:45;;;;;;;2.00;0.60;;;;;;;;;;4955870;28;20046;-80
2023/04/24 11:32:19;;;;;;;1.63;0.60;;;;;;;;;;4973651;28;20047;-81
2023/04/24 11:34:56;;;;;;;1.15;0.73;;;;;;;;;;4969551;28;20214;-81
2023/04/24 11:37:25;;;;;;;1.92;0.80;;;;;;;;;;4973276;28;20043;-80
2023/04/24 11:39:57;;;;;;;3.03;1.05;;;;;;;;;;4970305;28;20055;-81
2023/04/24 11:42:25;;;;;;;2.00;0.88;;;;;;;;;;4971435;28;20047;-82
2023/04/24 11:44:57;;;;;;;2.65;0.85;;;;;;;;;;4957986;28;20055;-81
2023/04/24 11:47:29;;;;;;;1.88;0.90;;;;;;;;;;4971256;28;20054;-80
2023/04/24 11:49:58;;;;;;;0.82;0.73;;;;;;;;;;4970229;28;20146;-81
2023/04/24 11:52:25;;;;;;;3.97;0.85;;;;;;;;;;4966487;28;20581;-81
2023/04/24 11:54:53;;;;;;;3.15;0.80;;;;;;;;;;4988874;28;20177;-81
2023/04/24 11:57:21;;;;;;;6.65;0.80;;;;;;;;;;4982337;28;20054;-79
2023/04/24 11:59:55;;;;;;;;;;;;;;;;;;4956236;28;20047;-80
2023/04/24 12:02:26;;;;;;;2.78;1.00;;;;;;;;;;4982089;28;19922;-80
2023/04/24 12:04:56;;;;;;;5.05;0.80;;;;;;;;;;4966283;28;20055;-80
2023/04/24 12:07:24;;;;;;;3.88;1.00;;;;;;;;;;4968020;28;20094;-80
2023/04/24 12:09:55;;;;;;;1.38;0.80;;;;;;;;;;4968860;28;20051;-80
2023/04/24 12:12:34;;;;;;;1.33;0.60;;;;;;;;;;4966642;28;20039;-80
2023/04/24 12:15:06;;;;;;;1.63;0.73;;;;;;;;;;4969525;28;20243;-80
2023/04/24 12:17:33;;;;;;;2.88;1.02;;;;;;;;;;4954436;28;20067;-82
2023/04/24 12:20:03;;;;;;;5.13;0.70;;;;;;;;;;4966260;28;20059;-78
2023/04/24 12:22:48;;;;;;;1.27;0.80;;;;;;;;;;4984409;28;20489;-80
2023/04/24 12:25:15;;;;;;;1.45;0.90;;;;;;;;;;4986380;28;20050;-80
2023/04/24 12:27:43;;;;;;;2.63;0.90;;;;;;;;;;4971131;28;20046;-81
2023/04/24 12:30:11;;;;;;;1.52;0.80;;;;;;;;;;4972389;28;20705;-81
2023/04/24 12:32:42;;;;;;;1.40;0.88;;;;;;;;;;4973977;28;20050;-79
2023/04/24 12:35:09;;;;;;;1.70;0.80;;;;;;;;;;4974186;28;20051;-82
2023/04/24 12:37:36;;;;;;;1.98;0.93;;;;;;;;;;4976440;28;20039;-81
2023/04/24 12:40:17;;;;;;;0.80;0.70;;;;;;;;;;4973380;28;20142;-80
2023/04/24 12:43:15;;;;;;;4.35;0.75;;;;;;;;;;4985446;28;20170;-81
2023/04/24 12:45:47;;;;;;;5.25;1.17;;;;;;;;;;4992618;28;20047;-79
2023/04/24 12:48:21;;;;;;;1.48;0.88;;;;;;;;;;4975580;28;20051;-79
2023/04/24 12:51:12;;;;;;;4.47;1.02;;;;;;;;;;4986456;28;20113;-81
2023/04/24 12:53:41;;;;;;;1.80;0.95;;;;;;;;;;4988826;28;20073;-81
2023/04/24 12:56:08;;;;;;;2.58;0.95;;;;;;;;;;4988310;28;20043;-82
2023/04/24 12:58:40;;;;;;;3.85;0.90;;;;;;;;;;4958641;28;20070;-80
2023/04/24 13:01:08;;;;;;;3.55;1.00;;;;;;;;;;4954821;28;20080;-80
2023/04/24 13:03:35;;;;;;;2.78;0.80;;;;;;;;;;4988689;28;20474;-80
2023/04/24 13:06:03;;;;;;;1.33;0.90;;;;;;;;;;4990180;28;20165;-79
2023/04/24 13:08:34;;;;;;;2.65;0.88;;;;;;;;;;4979336;28;20042;-81
2023/04/24 13:11:05;;;;;;;1.50;0.90;;;;;;;;;;4987592;28;20043;-79
2023/04/24 13:13:34;;;;;;;3.90;1.02;;;;;;;;;;4984674;28;20054;-82
2023/04/24 13:16:02;;;;;;;2.00;1.10;;;;;;;;;;4970668;28;20080;-80
2023/04/24 13:18:31;;;;;;;1.33;0.90;;;;;;;;;;4969915;28;20035;-80
2023/04/24 13:20:57;;;;;;;1.55;0.80;;;;;;;;;;4984915;28;20407;-81
2023/04/24 13:23:26;;;;;;;2.70;1.00;;;;;;;;;;4983994;28;20158;-80
2023/04/24 13:25:55;;;;;;;3.67;1.00;;;;;;;;;;4980444;28;20141;-80
2023/04/24 13:28:23;;;;;;;1.35;0.90;;;;;;;;;;4984715;28;20556;-81
2023/04/24 13:31:21;;;;;;;1.30;0.90;;;;;;;;;;4983134;28;20054;-78
2023/04/24 13:33:50;;;;;;;1.25;0.93;;;;;;;;;;4986208;28;20058;-81
2023/04/24 13:36:17;;;;;;;1.50;1.05;;;;;;;;;;4986853;28;20039;-79
2023/04/24 13:38:46;;;;;;;2.60;1.20;;;;;;;;;;4993193;28;20050;-80
2023/04/24 13:41:12;;;;;;;2.22;0.95;;;;;;;;;;5005792;28;20042;-80
2023/04/24 13:43:41;;;;;;;7.75;1.23;;;;;;;;;;5004973;28;20072;-79
2023/04/24 13:46:13;;;;;;;1.63;1.10;;;;;;;;;;4994742;28;20561;-81
2023/04/24 13:48:40;;;;;;;2.00;1.05;;;;;;;;;;5003585;28;21572;-79
2023/04/24 13:51:09;;;;;;;2.75;1.17;;;;;;;;;;5004616;28;20077;-81
2023/04/24 13:53:38;;;;;;;2.05;1.10;;;;;;;;;;5001794;28;20461;-79
2023/04/24 13:56:05;;;;;;;4.10;0.90;;;;;;;;;;4998787;28;20105;-81
2023/04/24 13:58:38;;;;;;;3.10;1.30;;;;;;;;;;5007975;28;20601;-80
2023/04/24 14:01:06;;;;;;;1.20;0.88;;;;;;;;;;5009227;28;20052;-81
2023/04/24 14:03:33;;;;;;;3.28;1.05;;;;;;;;;;5005086;28;20050;-82
2023/04/24 14:06:00;;;;;;;2.22;1.20;;;;;;;;;;5007184;28;20055;-78
2023/04/24 14:08:26;;;;;;;2.33;1.00;;;;;;;;;;5009139;28;20533;-82
2023/04/24 14:10:53;;;;;;;2.50;1.30;;;;;;;;;;4993964;28;20038;-80
2023/04/24 14:13:20;;;;;;;1.35;0.98;;;;;;;;;;5008371;28;20121;-79
2023/04/24 14:15:46;;;;;;;3.40;1.17;;;;;;;;;;5008366;28;20034;-81
2023/04/24 14:18:18;;;;;;;3.47;1.40;;;;;;;;;;4991521;28;20038;-81
2023/04/24 14:20:45;;;;;;;2.97;1.08;;;;;;;;;;5007638;28;20069;-81
2023/04/24 14:23:12;;;;;;;1.20;0.90;;;;;;;;;;5004415;28;20073;-81
2023/04/24 14:25:38;;;;;;;1.80;1.00;;;;;;;;;;4993329;28;20049;-80
2023/04/24 14:28:05;;;;;;;2.70;1.10;;;;;;;;;;5005139;28;20046;-82
2023/04/24 14:30:32;;;;;;;0.80;0.60;;;;;;;;;;5012360;28;20050;-80
2023/04/24 14:32:59;;;;;;;1.33;0.90;;;;;;;;;;5005256;28;20244;-80
2023/04/24 14:35:25;;;;;;;2.97;0.95;;;;;;;;;;4992185;28;20042;-82
2023/04/24 14:37:54;;;;;;;1.70;0.90;;;;;;;;;;5008164;28;20100;-78
2023/04/24 14:40:21;;;;;;;1.20;0.75;;;;;;;;;;4991169;28;20038;-81
2023/04/24 14:43:08;;;;;;;1.67;1.00;;;;;;;;;;4991140;28;20055;-80
2023/04/24 14:45:34;;;;;;;1.20;0.80;;;;;;;;;;4991882;28;20141;-81
2023/04/24 14:48:01;;;;;;;1.98;1.00;;;;;;;;;;5009130;28;20046;-82
2023/04/24 14:50:28;;;;;;;1.45;1.00;;;;;;;;;;4996176;28;20449;-81
2023/04/24 14:52:57;;;;;;;4.45;1.17;;;;;;;;;;5002929;28;20047;-79
2023/04/24 14:55:24;;;;;;;1.77;1.00;;;;;;;;;;5007721;28;20031;-81
2023/04/24 14:57:51;;;;;;;3.85;1.15;;;;;;;;;;4997942;28;20046;-80
2023/04/24 15:00:18;;;;;;;2.45;1.10;;;;;;;;;;4974643;28;20054;-77
2023/04/24 15:02:44;;;;;;;1.42;0.90;;;;;;;;;;4989732;28;20453;-80
2023/04/24 15:05:11;;;;;;;1.92;1.00;;;;;;;;;;4988549;28;20043;-79
2023/04/24 15:07:41;;;;;;;1.45;0.93;;;;;;;;;;4978827;28;20544;-79
2023/04/24 15:10:08;;;;;;;3.00;1.30;;;;;;;;;;5011036;28;20038;-81
2023/04/24 15:12:34;;;;;;;1.30;1.00;;;;;;;;;;5011677;28;20046;-83
2023/04/24 15:15:01;;;;;;;4.18;1.58;;;;;;;;;;4998027;28;20504;-80
2023/04/24 15:17:28;;;;;;;1.00;0.77;;;;;;;;;;4996824;28;20114;-80